createdAt,value
2023-02-06T00:01:20.322Z,6.80
2023-02-06T00:04:08.837Z,6.80
2023-02-06T00:06:58.653Z,6.60
2023-02-06T00:09:47.118Z,6.60
2023-02-06T00:12:36.468Z,6.60
2023-02-06T00:15:24.981Z,6.60
2023-02-06T00:18:13.568Z,6.60
2023-02-06T00:21:02.007Z,6.60
2023-02-06T00:23:52.861Z,6.50
2023-02-06T00:26:41.442Z,6.50
2023-02-06T00:29:29.822Z,6.50
2023-02-06T00:32:18.309Z,6.50
2023-02-06T00:35:07.480Z,6.40
2023-02-06T00:37:56.116Z,6.40
2023-02-06T00:40:46.199Z,6.40
2023-02-06T00:43:34.964Z,6.30
2023-02-06T00:46:23.429Z,6.20
2023-02-06T00:49:12.094Z,6.20
2023-02-06T00:52:00.513Z,6.20
2023-02-06T00:54:48.920Z,6.20
2023-02-06T00:57:38.737Z,6.20
2023-02-06T01:00:27.186Z,6.00
2023-02-06T01:03:15.583Z,5.80
2023-02-06T01:06:04.144Z,5.60
2023-02-06T01:08:52.620Z,5.50
2023-02-06T01:11:41.051Z,5.60
2023-02-06T01:14:30.854Z,5.30
2023-02-06T01:17:19.317Z,5.30
2023-02-06T01:20:10.005Z,5.40
2023-02-06T01:22:58.466Z,5.60
2023-02-06T01:25:46.881Z,5.70
2023-02-06T01:28:37.702Z,5.60
2023-02-06T01:31:29.738Z,5.40
2023-02-06T01:34:18.192Z,5.50
2023-02-06T01:37:06.664Z,5.50
2023-02-06T01:39:55.061Z,5.40
2023-02-06T01:42:43.800Z,5.40
2023-02-06T01:45:46.150Z,5.50
2023-02-06T01:48:40.205Z,5.20
2023-02-06T01:51:30.550Z,4.90
2023-02-06T01:54:19.226Z,4.80
2023-02-06T01:57:10.580Z,4.90
2023-02-06T02:00:02.790Z,4.90
2023-02-06T02:02:51.712Z,5.00
2023-02-06T02:05:43.403Z,5.00
2023-02-06T02:08:37.134Z,4.90
2023-02-06T02:11:29.949Z,4.80
2023-02-06T02:14:18.640Z,4.80
2023-02-06T02:17:23.732Z,4.80
2023-02-06T02:20:49.232Z,5.10
2023-02-06T02:23:43.415Z,5.20
2023-02-06T02:27:01.948Z,5.30
2023-02-06T02:30:31.337Z,5.50
2023-02-06T02:33:45.481Z,5.50
2023-02-06T02:36:38.722Z,5.50
2023-02-06T02:39:37.338Z,5.60
2023-02-06T02:42:34.875Z,5.50
2023-02-06T02:45:30.269Z,5.60
2023-02-06T02:48:23.690Z,5.60
2023-02-06T02:51:13.291Z,5.60
2023-02-06T02:54:03.085Z,5.60
2023-02-06T02:56:51.551Z,5.50
2023-02-06T02:59:44.918Z,5.50
2023-02-06T03:02:37.731Z,5.60
2023-02-06T03:05:27.998Z,5.60
2023-02-06T03:08:24.373Z,5.50
2023-02-06T03:11:15.837Z,5.50
2023-02-06T03:14:07.305Z,5.60
2023-02-06T03:16:59.163Z,5.60
2023-02-06T03:19:50.827Z,5.60
2023-02-06T03:22:39.947Z,5.60
2023-02-06T03:25:36.589Z,5.60
2023-02-06T03:28:29.573Z,5.60
2023-02-06T03:31:22.410Z,5.60
2023-02-06T03:34:15.203Z,5.60
2023-02-06T03:37:03.708Z,5.60
2023-02-06T03:39:52.204Z,5.60
2023-02-06T03:42:43.591Z,5.50
2023-02-06T03:45:37.261Z,5.50
2023-02-06T03:48:30.781Z,5.50
2023-02-06T03:51:22.501Z,5.50
2023-02-06T03:54:15.035Z,5.50
2023-02-06T03:57:06.203Z,5.50
2023-02-06T03:59:54.731Z,5.50
2023-02-06T04:02:47.486Z,5.50
2023-02-06T04:05:36.181Z,5.40
2023-02-06T04:08:24.804Z,5.30
2023-02-06T04:11:13.262Z,5.30
2023-02-06T04:14:01.738Z,5.20
2023-02-06T04:16:50.289Z,5.20
2023-02-06T04:19:40.161Z,5.20
2023-02-06T04:22:28.605Z,5.10
2023-02-06T04:25:17.274Z,5.10
2023-02-06T04:28:06.319Z,5.20
2023-02-06T04:30:54.957Z,5.20
2023-02-06T04:33:43.381Z,5.10
2023-02-06T04:36:33.604Z,5.10
2023-02-06T04:39:22.104Z,4.90
2023-02-06T04:42:13.663Z,4.80
2023-02-06T04:45:02.121Z,4.90
2023-02-06T04:47:50.606Z,4.90
2023-02-06T04:50:39.014Z,4.90
2023-02-06T04:53:28.816Z,5.00
2023-02-06T04:56:17.278Z,5.10
2023-02-06T04:59:05.810Z,5.10
2023-02-06T05:01:54.790Z,5.10
2023-02-06T05:04:43.221Z,5.10
2023-02-06T05:07:31.674Z,5.10
2023-02-06T05:10:21.846Z,5.10
2023-02-06T05:13:10.332Z,5.10
2023-02-06T05:16:01.445Z,5.10
2023-02-06T05:18:54.445Z,5.10
2023-02-06T05:21:42.848Z,5.10
2023-02-06T05:24:31.427Z,5.10
2023-02-06T05:27:21.192Z,5.10
2023-02-06T05:30:10.874Z,5.00
2023-02-06T05:32:59.336Z,5.00
2023-02-06T05:35:47.748Z,4.90
2023-02-06T05:38:36.282Z,4.90
2023-02-06T05:41:24.745Z,4.90
2023-02-06T05:44:14.575Z,4.90
2023-02-06T05:47:03.028Z,4.80
2023-02-06T05:49:51.473Z,4.80
2023-02-06T05:52:39.882Z,4.80
2023-02-06T05:55:28.401Z,4.80
2023-02-06T05:58:18.169Z,4.70
2023-02-06T06:01:08.045Z,4.70
2023-02-06T06:03:56.950Z,4.60
2023-02-06T06:06:45.524Z,4.60
2023-02-06T06:09:33.951Z,4.50
2023-02-06T06:12:22.357Z,4.40
2023-02-06T06:15:11.141Z,3.90
2023-02-06T06:18:00.859Z,3.20
2023-02-06T06:20:49.840Z,3.10
2023-02-06T06:23:38.304Z,3.40
2023-02-06T06:26:26.867Z,3.60
2023-02-06T06:29:15.367Z,3.50
2023-02-06T06:32:04.201Z,3.60
2023-02-06T06:34:54.003Z,3.80
2023-02-06T06:37:42.450Z,3.90
2023-02-06T06:40:30.870Z,4.00
2023-02-06T06:43:19.345Z,4.00
2023-02-06T06:46:07.831Z,4.10
2023-02-06T06:48:56.380Z,4.00
2023-02-06T06:51:46.146Z,3.90
2023-02-06T06:54:34.638Z,3.70
2023-02-06T06:57:23.592Z,3.60
2023-02-06T07:00:13.164Z,3.70
2023-02-06T07:03:02.057Z,3.90
2023-02-06T07:05:52.970Z,4.10
2023-02-06T07:08:43.568Z,4.30
2023-02-06T07:11:32.031Z,4.30
2023-02-06T07:14:20.609Z,4.40
2023-02-06T07:17:09.196Z,4.50
2023-02-06T07:19:57.803Z,4.60
2023-02-06T07:22:47.435Z,4.70
2023-02-06T07:25:37.632Z,4.60
2023-02-06T07:28:26.285Z,4.50
2023-02-06T07:31:14.726Z,4.30
2023-02-06T07:34:03.338Z,4.30
2023-02-06T07:36:53.402Z,4.30
2023-02-06T07:39:41.815Z,4.30
2023-02-06T07:42:33.421Z,4.30
2023-02-06T07:45:21.838Z,4.40
2023-02-06T07:48:10.303Z,4.70
2023-02-06T07:50:58.881Z,4.80
2023-02-06T07:53:47.316Z,5.00
2023-02-06T07:56:35.888Z,5.10
2023-02-06T07:59:25.796Z,5.20
2023-02-06T08:02:14.348Z,5.40
2023-02-06T08:05:02.767Z,5.50
2023-02-06T08:07:52.511Z,5.60
2023-02-06T08:10:40.963Z,5.70
2023-02-06T08:13:29.391Z,5.80
2023-02-06T08:16:21.099Z,5.90
2023-02-06T08:19:11.013Z,5.90
2023-02-06T08:21:59.508Z,5.90
2023-02-06T08:24:48.654Z,5.70
2023-02-06T08:27:37.109Z,5.80
2023-02-06T08:30:25.698Z,6.00
2023-02-06T08:33:15.645Z,6.20
2023-02-06T08:36:04.445Z,6.30
2023-02-06T08:38:53.588Z,6.40
2023-02-06T08:41:44.029Z,6.30
2023-02-06T08:44:32.634Z,6.50
2023-02-06T08:47:21.091Z,6.60
2023-02-06T08:50:11.193Z,6.70
2023-02-06T08:53:00.091Z,6.70
2023-02-06T08:55:48.553Z,6.80
2023-02-06T08:58:38.168Z,6.90
2023-02-06T09:01:27.877Z,7.10
2023-02-06T09:04:17.570Z,7.20
2023-02-06T09:07:07.411Z,7.30
2023-02-06T09:09:55.857Z,7.30
2023-02-06T09:12:44.377Z,7.10
2023-02-06T09:15:32.972Z,7.00
2023-02-06T09:18:21.405Z,7.00
2023-02-06T09:21:11.764Z,7.20
2023-02-06T09:24:03.355Z,7.10
2023-02-06T09:26:59.923Z,7.10
2023-02-06T09:29:49.186Z,7.10
2023-02-06T09:32:37.925Z,7.20
2023-02-06T09:35:26.323Z,7.30
2023-02-06T09:38:14.823Z,7.50
2023-02-06T09:41:07.714Z,7.40
2023-02-06T09:44:00.702Z,7.30
2023-02-06T09:46:55.780Z,7.30
2023-02-06T09:49:49.099Z,7.40
2023-02-06T09:52:52.716Z,7.40
2023-02-06T09:55:43.803Z,7.50
2023-02-06T09:58:40.752Z,7.70
2023-02-06T10:01:35.871Z,7.60
2023-02-06T10:04:40.053Z,7.60
2023-02-06T10:07:45.628Z,7.80
2023-02-06T10:10:39.345Z,8.10
2023-02-06T10:13:33.951Z,8.40
2023-02-06T10:16:36.925Z,8.80
2023-02-06T10:19:36.975Z,9.10
2023-02-06T10:22:29.656Z,9.40
2023-02-06T10:25:25.260Z,9.60
2023-02-06T10:28:22.803Z,9.80
2023-02-06T10:31:24.889Z,9.90
2023-02-06T10:34:32.674Z,9.70
2023-02-06T10:46:25.887Z,9.90
2023-02-06T10:49:32.364Z,9.90
2023-02-06T10:52:26.431Z,10.10
2023-02-06T10:55:20.553Z,10.30
2023-02-06T10:58:18.156Z,10.50
2023-02-06T11:07:13.717Z,9.90
2023-02-06T11:10:02.205Z,9.60
2023-02-06T11:12:55.410Z,9.40
2023-02-06T11:15:51.646Z,9.50
2023-02-06T11:18:42.912Z,9.90
2023-02-06T11:21:54.645Z,10.00
2023-02-06T11:25:01.329Z,10.40
2023-02-06T11:27:50.184Z,10.50
2023-02-06T11:30:42.247Z,10.60
2023-02-06T11:33:39.068Z,10.60
2023-02-06T11:36:29.669Z,10.90
2023-02-06T11:39:30.339Z,10.70
2023-02-06T11:42:23.520Z,11.00
2023-02-06T11:45:25.560Z,11.30
2023-02-06T11:48:33.805Z,11.40
2023-02-06T11:54:21.061Z,11.70
2023-02-06T11:57:22.996Z,12.00
2023-02-06T12:00:22.553Z,11.70
2023-02-06T12:03:30.688Z,11.70
2023-02-06T12:06:25.426Z,11.70
2023-02-06T12:09:15.089Z,11.50
2023-02-06T12:12:07.543Z,11.70
2023-02-06T12:15:13.857Z,12.10
2023-02-06T12:18:15.575Z,12.40
2023-02-06T12:21:07.523Z,12.40
2023-02-06T12:23:58.033Z,12.60
2023-02-06T12:26:48.771Z,12.60
2023-02-06T12:29:41.811Z,12.60
2023-02-06T12:32:38.677Z,12.80
2023-02-06T12:35:37.538Z,12.90
2023-02-06T12:38:36.538Z,13.00
2023-02-06T12:41:37.575Z,12.80
2023-02-06T12:44:31.275Z,12.80
2023-02-06T12:47:26.217Z,12.80
2023-02-06T12:50:19.538Z,12.80
2023-02-06T12:53:17.688Z,12.80
2023-02-06T12:56:25.609Z,12.70
2023-02-06T12:59:57.167Z,12.50
2023-02-06T13:03:21.496Z,12.50
2023-02-06T13:09:07.797Z,13.10
2023-02-06T13:12:09.173Z,13.40
2023-02-06T13:14:59.572Z,13.60
2023-02-06T13:17:50.138Z,13.70
2023-02-06T13:21:23.537Z,13.90
2023-02-06T13:24:21.594Z,14.00
2023-02-06T13:27:15.084Z,14.10
2023-02-06T13:30:39.082Z,13.60
2023-02-06T13:33:39.409Z,13.30
2023-02-06T13:36:44.057Z,13.30
2023-02-06T13:39:34.897Z,13.20
2023-02-06T13:42:40.917Z,13.30
2023-02-06T13:48:53.733Z,12.60
2023-02-06T13:51:51.320Z,12.00
2023-02-06T13:55:15.094Z,11.50
2023-02-06T13:58:37.444Z,11.30
2023-02-06T14:01:29.869Z,11.30
2023-02-06T14:04:24.864Z,11.20
2023-02-06T14:07:41.881Z,11.20
2023-02-06T14:10:55.139Z,10.90
2023-02-06T14:13:56.502Z,10.70
2023-02-06T14:16:52.592Z,10.60
2023-02-06T14:19:51.500Z,10.60
2023-02-06T14:22:48.387Z,10.90
2023-02-06T14:25:49.025Z,11.20
2023-02-06T14:28:50.180Z,11.50
2023-02-06T14:31:48.672Z,11.50
2023-02-06T14:34:51.187Z,11.30
2023-02-06T14:38:03.221Z,11.10
2023-02-06T14:40:53.767Z,11.00
2023-02-06T14:43:45.892Z,10.90
2023-02-06T14:46:34.597Z,11.10
2023-02-06T14:49:31.601Z,11.00
2023-02-06T14:52:24.353Z,10.80
2023-02-06T14:55:39.383Z,10.70
2023-02-06T14:58:29.636Z,10.40
2023-02-06T15:01:23.378Z,10.10
2023-02-06T15:04:14.041Z,10.00
2023-02-06T15:07:04.490Z,9.90
2023-02-06T15:10:00.418Z,9.80
2023-02-06T15:12:54.528Z,9.80
2023-02-06T15:15:54.647Z,9.70
2023-02-06T15:18:43.089Z,9.70
2023-02-06T15:21:31.618Z,9.60
2023-02-06T15:24:31.008Z,9.50
2023-02-06T15:27:27.568Z,9.40
2023-02-06T15:30:23.276Z,9.30
2023-02-06T15:33:15.464Z,9.20
2023-02-06T15:36:05.383Z,9.00
2023-02-06T15:38:54.048Z,8.90
2023-02-06T15:41:44.361Z,8.90
2023-02-06T15:44:36.296Z,8.90
2023-02-06T15:50:19.584Z,8.80
2023-02-06T15:53:21.244Z,8.70
2023-02-06T15:56:20.543Z,8.80
2023-02-06T15:59:16.315Z,8.80
2023-02-06T16:02:05.445Z,8.80
2023-02-06T16:04:55.652Z,8.70
2023-02-06T16:07:48.800Z,8.60
2023-02-06T16:10:39.584Z,8.50
2023-02-06T16:13:31.316Z,8.40
2023-02-06T16:16:22.358Z,8.30
2023-02-06T16:19:29.460Z,8.20
2023-02-06T16:22:25.259Z,8.10
2023-02-06T16:25:20.915Z,8.10
2023-02-06T16:28:22.888Z,8.10
2023-02-06T16:31:14.447Z,7.90
2023-02-06T16:34:04.101Z,7.90
2023-02-06T16:36:52.537Z,7.90
2023-02-06T16:39:43.845Z,7.90
2023-02-06T16:42:36.384Z,7.90
2023-02-06T16:45:27.363Z,7.90
2023-02-06T16:48:18.030Z,8.50
2023-02-06T16:51:07.328Z,7.80
2023-02-06T16:53:57.230Z,7.80
2023-02-06T16:56:47.759Z,7.60
2023-02-06T16:59:36.313Z,7.60
2023-02-06T17:02:25.412Z,7.70
2023-02-06T17:05:14.461Z,7.70
2023-02-06T17:08:03.908Z,7.60
2023-02-06T17:10:53.068Z,7.50
2023-02-06T17:13:43.060Z,7.50
2023-02-06T17:16:33.732Z,7.40
2023-02-06T17:19:22.429Z,7.40
2023-02-06T17:22:12.970Z,7.30
2023-02-06T17:25:01.649Z,7.30
2023-02-06T17:27:50.362Z,7.30
2023-02-06T17:30:41.043Z,7.30
2023-02-06T17:33:29.700Z,7.30
2023-02-06T17:36:21.943Z,7.30
2023-02-06T17:39:13.668Z,7.20
2023-02-06T17:42:02.355Z,7.20
2023-02-06T17:44:50.988Z,7.30
2023-02-06T17:47:40.866Z,7.20
2023-02-06T17:50:30.246Z,7.10
2023-02-06T17:53:18.662Z,7.10
2023-02-06T17:56:08.600Z,7.10
2023-02-06T17:58:57.195Z,7.10
2023-02-06T18:01:45.872Z,7.00
2023-02-06T18:04:35.940Z,7.00
2023-02-06T18:07:24.472Z,7.00
2023-02-06T18:10:13.319Z,7.00
2023-02-06T18:13:01.800Z,7.00
2023-02-06T18:15:51.458Z,7.00
2023-02-06T18:18:40.045Z,7.00
2023-02-06T18:21:31.016Z,7.00
2023-02-06T18:24:19.440Z,7.10
2023-02-06T18:27:09.030Z,7.20
2023-02-06T18:29:57.546Z,7.20
2023-02-06T18:32:46.111Z,7.00
2023-02-06T18:35:38.637Z,7.00
2023-02-06T18:38:28.760Z,7.00
2023-02-06T18:41:35.201Z,7.00
2023-02-06T18:44:24.610Z,7.00
2023-02-06T18:47:15.659Z,6.90
2023-02-06T18:50:04.090Z,6.90
2023-02-06T18:55:43.047Z,6.70
2023-02-06T18:58:31.607Z,6.60
2023-02-06T19:01:22.438Z,6.50
2023-02-06T19:04:10.911Z,6.40
2023-02-06T19:06:59.353Z,6.50
2023-02-06T19:09:47.824Z,6.50
2023-02-06T19:12:39.259Z,6.50
2023-02-06T19:15:30.072Z,7.10
2023-02-06T19:18:29.037Z,6.40
2023-02-06T19:21:26.508Z,6.40
2023-02-06T19:24:18.456Z,6.50
2023-02-06T19:27:07.143Z,6.40
2023-02-06T19:29:57.011Z,6.40
2023-02-06T19:32:45.508Z,6.30
2023-02-06T19:35:34.151Z,6.20
2023-02-06T19:38:22.789Z,6.10
2023-02-06T19:41:12.988Z,6.10
2023-02-06T19:44:05.178Z,6.10
2023-02-06T19:46:55.111Z,6.10
2023-02-06T19:49:44.354Z,6.10
2023-02-06T19:52:35.183Z,6.10
2023-02-06T19:55:23.714Z,6.10
2023-02-06T19:58:12.189Z,6.10
2023-02-06T20:01:07.909Z,6.10
2023-02-06T20:03:58.701Z,6.00
2023-02-06T20:06:47.278Z,6.00
2023-02-06T20:09:36.593Z,5.90
2023-02-06T20:12:25.168Z,5.90
2023-02-06T20:15:14.155Z,6.00
2023-02-06T20:18:02.641Z,5.90
2023-02-06T20:20:52.490Z,5.90
2023-02-06T20:23:41.777Z,5.90
2023-02-06T20:26:32.020Z,5.80
2023-02-06T20:29:23.817Z,5.80
2023-02-06T20:32:12.385Z,5.90
2023-02-06T20:35:00.867Z,5.90
2023-02-06T20:37:50.790Z,6.00
2023-02-06T20:40:43.723Z,6.00
2023-02-06T20:43:32.476Z,6.00
2023-02-06T20:46:21.675Z,6.00
2023-02-06T20:49:15.267Z,5.90
2023-02-06T20:52:04.271Z,5.90
2023-02-06T20:54:54.206Z,6.00
2023-02-06T20:57:43.333Z,6.00
2023-02-06T21:00:31.944Z,6.00
2023-02-06T21:03:20.556Z,6.00
2023-02-06T21:06:09.127Z,6.00
2023-02-06T21:09:00.222Z,6.00
2023-02-06T21:11:51.133Z,5.90
2023-02-06T21:14:39.596Z,5.90
2023-02-06T21:17:28.185Z,5.90
2023-02-06T21:20:16.779Z,5.90
2023-02-06T21:23:05.302Z,5.90
2023-02-06T21:25:55.843Z,5.90
2023-02-06T21:28:46.246Z,5.90
2023-02-06T21:31:38.401Z,5.90
2023-02-06T21:34:27.303Z,6.00
2023-02-06T21:37:15.976Z,6.00
2023-02-06T21:40:05.138Z,6.00
2023-02-06T21:42:53.584Z,5.90
2023-02-06T21:45:44.688Z,6.00
2023-02-06T21:48:33.900Z,6.00
2023-02-06T21:51:24.192Z,6.00
2023-02-06T21:54:12.708Z,5.90
2023-02-06T21:57:01.154Z,5.90
2023-02-06T21:59:49.729Z,5.90
2023-02-06T22:02:40.166Z,5.90
2023-02-06T22:05:29.129Z,5.90
2023-02-06T22:08:17.613Z,5.90
2023-02-06T22:11:13.071Z,5.90
2023-02-06T22:14:03.791Z,5.90
2023-02-06T22:16:52.290Z,5.80
2023-02-06T22:19:42.447Z,5.80
2023-02-06T22:22:30.931Z,5.80
2023-02-06T22:25:19.506Z,5.80
2023-02-06T22:28:07.977Z,5.80
2023-02-06T22:30:56.616Z,5.80
2023-02-06T22:33:45.216Z,5.90
2023-02-06T22:36:35.137Z,5.80
2023-02-06T22:39:23.764Z,5.80
2023-02-06T22:42:12.310Z,5.80
2023-02-06T22:45:00.768Z,5.80
2023-02-06T22:47:49.285Z,5.80
2023-02-06T22:50:37.797Z,5.80
2023-02-06T22:53:30.535Z,5.80
2023-02-06T22:56:27.863Z,5.90
2023-02-06T22:59:18.268Z,5.80
2023-02-06T23:02:06.757Z,5.80
2023-02-06T23:04:55.256Z,5.80
2023-02-06T23:07:43.705Z,5.80
2023-02-06T23:10:33.542Z,5.80
2023-02-06T23:13:21.993Z,5.80
2023-02-06T23:16:11.229Z,5.80
2023-02-06T23:19:01.705Z,5.80
2023-02-06T23:21:52.339Z,5.80
2023-02-06T23:24:41.597Z,5.80
2023-02-06T23:27:31.428Z,5.80
2023-02-06T23:30:20.229Z,5.80
2023-02-06T23:33:08.608Z,5.70
2023-02-06T23:35:57.035Z,5.70
2023-02-06T23:38:47.237Z,5.60
2023-02-06T23:41:36.056Z,5.60
2023-02-06T23:44:25.873Z,5.60
2023-02-06T23:47:14.346Z,5.60
2023-02-06T23:50:02.904Z,5.60
2023-02-06T23:52:51.648Z,5.60
2023-02-06T23:55:40.955Z,5.60
2023-02-06T23:58:29.406Z,5.70
